sensor_id;sensor_type;location;lat;lon;timestamp;P1;durP1;ratioP1;P2;durP2;ratioP2
26702;SDS011;14316;51.074;3.704;2022-12-10T00:01:48;102.65;;;47.05;;
26702;SDS011;14316;51.074;3.704;2022-12-10T00:04:16;95.25;;;43.97;;
26702;SDS011;14316;51.074;3.704;2022-12-10T00:06:43;98.80;;;44.78;;
26702;SDS011;14316;51.074;3.704;2022-12-10T00:09:13;84.97;;;38.55;;
26702;SDS011;14316;51.074;3.704;2022-12-10T00:11:40;69.60;;;33.92;;
26702;SDS011;14316;51.074;3.704;2022-12-10T00:14:07;96.72;;;43.67;;
26702;SDS011;14316;51.074;3.704;2022-12-10T00:16:33;93.30;;;42.47;;
26702;SDS011;14316;51.074;3.704;2022-12-10T00:19:00;91.03;;;42.70;;
26702;SDS011;14316;51.074;3.704;2022-12-10T00:21:28;97.07;;;42.90;;
26702;SDS011;14316;51.074;3.704;2022-12-10T00:23:56;89.47;;;41.50;;
26702;SDS011;14316;51.074;3.704;2022-12-10T00:26:23;92.32;;;43.95;;
26702;SDS011;14316;51.074;3.704;2022-12-10T00:28:50;94.90;;;42.35;;
26702;SDS011;14316;51.074;3.704;2022-12-10T00:31:21;96.57;;;43.42;;
26702;SDS011;14316;51.074;3.704;2022-12-10T00:33:48;89.80;;;44.15;;
26702;SDS011;14316;51.074;3.704;2022-12-10T00:36:16;93.68;;;42.22;;
26702;SDS011;14316;51.074;3.704;2022-12-10T00:38:43;86.57;;;37.03;;
26702;SDS011;14316;51.074;3.704;2022-12-10T00:41:10;89.28;;;37.13;;
26702;SDS011;14316;51.074;3.704;2022-12-10T00:43:36;96.50;;;43.63;;
26702;SDS011;14316;51.074;3.704;2022-12-10T00:46:02;98.55;;;43.72;;
26702;SDS011;14316;51.074;3.704;2022-12-10T00:48:28;96.13;;;43.35;;
26702;SDS011;14316;51.074;3.704;2022-12-10T00:50:58;103.20;;;44.20;;
26702;SDS011;14316;51.074;3.704;2022-12-10T00:53:29;94.22;;;39.05;;
26702;SDS011;14316;51.074;3.704;2022-12-10T00:55:56;82.72;;;34.08;;
26702;SDS011;14316;51.074;3.704;2022-12-10T00:58:26;104.03;;;46.22;;
26702;SDS011;14316;51.074;3.704;2022-12-10T01:00:52;100.57;;;41.47;;
26702;SDS011;14316;51.074;3.704;2022-12-10T01:03:18;101.38;;;43.83;;
26702;SDS011;14316;51.074;3.704;2022-12-10T01:05:44;103.40;;;41.92;;
26702;SDS011;14316;51.074;3.704;2022-12-10T01:08:10;109.85;;;44.28;;
26702;SDS011;14316;51.074;3.704;2022-12-10T01:10:37;96.68;;;40.97;;
26702;SDS011;14316;51.074;3.704;2022-12-10T01:13:03;98.05;;;40.75;;
26702;SDS011;14316;51.074;3.704;2022-12-10T01:15:29;111.25;;;46.65;;
26702;SDS011;14316;51.074;3.704;2022-12-10T01:17:55;103.35;;;40.47;;
26702;SDS011;14316;51.074;3.704;2022-12-10T01:20:20;106.05;;;44.35;;
26702;SDS011;14316;51.074;3.704;2022-12-10T01:22:46;109.50;;;41.70;;
26702;SDS011;14316;51.074;3.704;2022-12-10T01:25:12;88.78;;;34.05;;
26702;SDS011;14316;51.074;3.704;2022-12-10T01:27:38;108.60;;;42.20;;
26702;SDS011;14316;51.074;3.704;2022-12-10T01:30:04;109.35;;;43.53;;
26702;SDS011;14316;51.074;3.704;2022-12-10T01:32:30;109.82;;;46.60;;
26702;SDS011;14316;51.074;3.704;2022-12-10T01:34:56;111.22;;;47.53;;
26702;SDS011;14316;51.074;3.704;2022-12-10T01:37:22;114.15;;;46.90;;
26702;SDS011;14316;51.074;3.704;2022-12-10T01:39:48;114.57;;;43.45;;
26702;SDS011;14316;51.074;3.704;2022-12-10T01:42:15;114.05;;;47.38;;
26702;SDS011;14316;51.074;3.704;2022-12-10T01:47:07;97.45;;;39.40;;
26702;SDS011;14316;51.074;3.704;2022-12-10T01:52:01;103.18;;;38.47;;
26702;SDS011;14316;51.074;3.704;2022-12-10T01:54:32;62.38;;;23.20;;
26702;SDS011;14316;51.074;3.704;2022-12-10T01:59:29;164.07;;;43.42;;
26702;SDS011;14316;51.074;3.704;2022-12-10T02:05:21;137.18;;;45.60;;
26702;SDS011;14316;51.074;3.704;2022-12-10T02:08:08;135.13;;;44.97;;
26702;SDS011;14316;51.074;3.704;2022-12-10T02:13:07;133.48;;;48.38;;
26702;SDS011;14316;51.074;3.704;2022-12-10T02:15:41;157.57;;;46.13;;
26702;SDS011;14316;51.074;3.704;2022-12-10T02:20:47;181.35;;;46.65;;
26702;SDS011;14316;51.074;3.704;2022-12-10T02:23:18;194.68;;;46.53;;
26702;SDS011;14316;51.074;3.704;2022-12-10T02:25:56;208.40;;;44.33;;
26702;SDS011;14316;51.074;3.704;2022-12-10T02:28:31;198.35;;;43.70;;
26702;SDS011;14316;51.074;3.704;2022-12-10T02:31:05;191.43;;;37.40;;
26702;SDS011;14316;51.074;3.704;2022-12-10T02:33:32;186.73;;;41.42;;
26702;SDS011;14316;51.074;3.704;2022-12-10T02:36:00;282.60;;;47.55;;
26702;SDS011;14316;51.074;3.704;2022-12-10T02:38:28;146.05;;;39.20;;
26702;SDS011;14316;51.074;3.704;2022-12-10T02:41:00;178.23;;;42.67;;
26702;SDS011;14316;51.074;3.704;2022-12-10T02:43:32;216.00;;;44.80;;
26702;SDS011;14316;51.074;3.704;2022-12-10T02:45:59;177.40;;;42.67;;
26702;SDS011;14316;51.074;3.704;2022-12-10T02:48:28;196.13;;;47.38;;
26702;SDS011;14316;51.074;3.704;2022-12-10T02:50:54;235.73;;;47.28;;
26702;SDS011;14316;51.074;3.704;2022-12-10T02:53:20;169.63;;;46.95;;
26702;SDS011;14316;51.074;3.704;2022-12-10T03:04:33;222.05;;;45.80;;
26702;SDS011;14316;51.074;3.704;2022-12-10T03:07:19;233.68;;;50.38;;
26702;SDS011;14316;51.074;3.704;2022-12-10T03:09:54;178.05;;;45.17;;
26702;SDS011;14316;51.074;3.704;2022-12-10T03:12:35;177.25;;;44.30;;
26702;SDS011;14316;51.074;3.704;2022-12-10T03:15:09;169.02;;;44.83;;
26702;SDS011;14316;51.074;3.704;2022-12-10T03:17:37;152.38;;;43.05;;
26702;SDS011;14316;51.074;3.704;2022-12-10T03:20:06;136.18;;;39.03;;
26702;SDS011;14316;51.074;3.704;2022-12-10T03:22:36;151.25;;;42.90;;
26702;SDS011;14316;51.074;3.704;2022-12-10T03:25:04;142.40;;;43.53;;
26702;SDS011;14316;51.074;3.704;2022-12-10T03:27:32;162.48;;;42.83;;
26702;SDS011;14316;51.074;3.704;2022-12-10T03:30:00;164.18;;;46.15;;
26702;SDS011;14316;51.074;3.704;2022-12-10T03:32:27;165.23;;;45.47;;
26702;SDS011;14316;51.074;3.704;2022-12-10T03:34:55;170.30;;;47.60;;
26702;SDS011;14316;51.074;3.704;2022-12-10T03:37:24;164.60;;;45.75;;
26702;SDS011;14316;51.074;3.704;2022-12-10T03:39:50;147.63;;;47.60;;
26702;SDS011;14316;51.074;3.704;2022-12-10T03:42:17;189.32;;;48.25;;
26702;SDS011;14316;51.074;3.704;2022-12-10T03:44:43;170.07;;;48.40;;
26702;SDS011;14316;51.074;3.704;2022-12-10T03:47:10;143.38;;;45.30;;
26702;SDS011;14316;51.074;3.704;2022-12-10T03:49:39;147.82;;;44.85;;
26702;SDS011;14316;51.074;3.704;2022-12-10T03:52:05;143.65;;;44.47;;
26702;SDS011;14316;51.074;3.704;2022-12-10T03:54:31;212.82;;;48.85;;
26702;SDS011;14316;51.074;3.704;2022-12-10T03:56:57;150.35;;;48.13;;
26702;SDS011;14316;51.074;3.704;2022-12-10T03:59:22;171.65;;;47.80;;
26702;SDS011;14316;51.074;3.704;2022-12-10T04:01:48;153.75;;;44.05;;
26702;SDS011;14316;51.074;3.704;2022-12-10T04:04:14;147.65;;;44.20;;
26702;SDS011;14316;51.074;3.704;2022-12-10T04:06:40;161.55;;;43.85;;
26702;SDS011;14316;51.074;3.704;2022-12-10T04:09:08;141.10;;;41.65;;
26702;SDS011;14316;51.074;3.704;2022-12-10T04:11:36;135.30;;;39.25;;
26702;SDS011;14316;51.074;3.704;2022-12-10T04:14:02;140.07;;;39.30;;
26702;SDS011;14316;51.074;3.704;2022-12-10T04:16:46;151.02;;;45.55;;
26702;SDS011;14316;51.074;3.704;2022-12-10T04:19:13;159.88;;;45.53;;
26702;SDS011;14316;51.074;3.704;2022-12-10T04:21:40;190.40;;;44.45;;
26702;SDS011;14316;51.074;3.704;2022-12-10T04:24:27;143.57;;;39.58;;
26702;SDS011;14316;51.074;3.704;2022-12-10T04:27:18;183.40;;;42.33;;
26702;SDS011;14316;51.074;3.704;2022-12-10T04:29:47;157.10;;;39.60;;
26702;SDS011;14316;51.074;3.704;2022-12-10T04:32:13;207.98;;;47.13;;
26702;SDS011;14316;51.074;3.704;2022-12-10T04:34:39;146.68;;;39.53;;
26702;SDS011;14316;51.074;3.704;2022-12-10T04:37:05;181.50;;;43.90;;
26702;SDS011;14316;51.074;3.704;2022-12-10T04:39:31;137.52;;;36.42;;
26702;SDS011;14316;51.074;3.704;2022-12-10T04:41:58;153.85;;;41.40;;
26702;SDS011;14316;51.074;3.704;2022-12-10T04:44:25;162.60;;;40.03;;
26702;SDS011;14316;51.074;3.704;2022-12-10T04:46:51;121.95;;;36.72;;
26702;SDS011;14316;51.074;3.704;2022-12-10T04:49:17;106.90;;;29.85;;
26702;SDS011;14316;51.074;3.704;2022-12-10T04:51:42;164.20;;;40.08;;
26702;SDS011;14316;51.074;3.704;2022-12-10T04:54:09;153.88;;;40.60;;
26702;SDS011;14316;51.074;3.704;2022-12-10T04:56:35;147.23;;;40.33;;
26702;SDS011;14316;51.074;3.704;2022-12-10T04:59:01;129.65;;;39.50;;
26702;SDS011;14316;51.074;3.704;2022-12-10T05:01:28;149.45;;;41.75;;
26702;SDS011;14316;51.074;3.704;2022-12-10T05:03:54;177.90;;;46.47;;
26702;SDS011;14316;51.074;3.704;2022-12-10T05:06:23;141.02;;;41.03;;
26702;SDS011;14316;51.074;3.704;2022-12-10T05:08:49;143.68;;;41.30;;
26702;SDS011;14316;51.074;3.704;2022-12-10T05:11:15;136.43;;;40.08;;
26702;SDS011;14316;51.074;3.704;2022-12-10T05:13:42;155.50;;;41.65;;
26702;SDS011;14316;51.074;3.704;2022-12-10T05:16:10;141.60;;;40.42;;
26702;SDS011;14316;51.074;3.704;2022-12-10T05:18:38;169.93;;;39.20;;
26702;SDS011;14316;51.074;3.704;2022-12-10T05:21:05;131.77;;;32.25;;
26702;SDS011;14316;51.074;3.704;2022-12-10T05:23:33;159.60;;;42.33;;
26702;SDS011;14316;51.074;3.704;2022-12-10T05:26:18;143.43;;;39.15;;
26702;SDS011;14316;51.074;3.704;2022-12-10T05:28:49;149.88;;;35.17;;
26702;SDS011;14316;51.074;3.704;2022-12-10T05:31:19;114.13;;;28.45;;
26702;SDS011;14316;51.074;3.704;2022-12-10T05:33:53;214.10;;;46.40;;
26702;SDS011;14316;51.074;3.704;2022-12-10T05:36:21;176.07;;;42.08;;
26702;SDS011;14316;51.074;3.704;2022-12-10T05:38:51;186.43;;;44.80;;
26702;SDS011;14316;51.074;3.704;2022-12-10T05:41:20;237.25;;;48.60;;
26702;SDS011;14316;51.074;3.704;2022-12-10T05:43:50;213.23;;;44.55;;
26702;SDS011;14316;51.074;3.704;2022-12-10T05:46:22;238.07;;;41.47;;
26702;SDS011;14316;51.074;3.704;2022-12-10T05:48:50;161.50;;;40.13;;
26702;SDS011;14316;51.074;3.704;2022-12-10T05:51:20;192.65;;;40.17;;
26702;SDS011;14316;51.074;3.704;2022-12-10T05:53:51;212.48;;;45.30;;
26702;SDS011;14316;51.074;3.704;2022-12-10T05:56:19;165.23;;;43.45;;
26702;SDS011;14316;51.074;3.704;2022-12-10T05:58:48;160.23;;;34.65;;
26702;SDS011;14316;51.074;3.704;2022-12-10T06:01:16;177.35;;;36.92;;
26702;SDS011;14316;51.074;3.704;2022-12-10T06:03:43;213.60;;;42.45;;
26702;SDS011;14316;51.074;3.704;2022-12-10T06:06:09;187.95;;;42.60;;
26702;SDS011;14316;51.074;3.704;2022-12-10T06:08:37;156.10;;;43.85;;
26702;SDS011;14316;51.074;3.704;2022-12-10T06:11:05;191.48;;;47.38;;
26702;SDS011;14316;51.074;3.704;2022-12-10T06:13:32;133.68;;;42.55;;
26702;SDS011;14316;51.074;3.704;2022-12-10T06:15:58;150.57;;;41.97;;
26702;SDS011;14316;51.074;3.704;2022-12-10T06:18:24;157.55;;;34.13;;
26702;SDS011;14316;51.074;3.704;2022-12-10T06:20:51;171.65;;;37.58;;
26702;SDS011;14316;51.074;3.704;2022-12-10T06:23:16;143.13;;;39.22;;
26702;SDS011;14316;51.074;3.704;2022-12-10T06:25:42;166.30;;;40.72;;
26702;SDS011;14316;51.074;3.704;2022-12-10T06:28:08;148.10;;;39.40;;
26702;SDS011;14316;51.074;3.704;2022-12-10T06:30:33;182.95;;;40.40;;
26702;SDS011;14316;51.074;3.704;2022-12-10T06:32:59;169.95;;;43.35;;
26702;SDS011;14316;51.074;3.704;2022-12-10T06:35:25;149.25;;;40.72;;
26702;SDS011;14316;51.074;3.704;2022-12-10T06:37:51;117.95;;;34.08;;
26702;SDS011;14316;51.074;3.704;2022-12-10T06:40:17;160.13;;;41.22;;
26702;SDS011;14316;51.074;3.704;2022-12-10T06:42:43;142.82;;;42.30;;
26702;SDS011;14316;51.074;3.704;2022-12-10T06:45:10;169.88;;;44.22;;
26702;SDS011;14316;51.074;3.704;2022-12-10T06:47:36;159.93;;;40.88;;
26702;SDS011;14316;51.074;3.704;2022-12-10T06:50:01;150.35;;;43.53;;
26702;SDS011;14316;51.074;3.704;2022-12-10T06:52:27;161.95;;;42.63;;
26702;SDS011;14316;51.074;3.704;2022-12-10T06:54:53;160.20;;;41.22;;
26702;SDS011;14316;51.074;3.704;2022-12-10T06:57:20;158.52;;;42.15;;
26702;SDS011;14316;51.074;3.704;2022-12-10T06:59:46;139.07;;;36.80;;
26702;SDS011;14316;51.074;3.704;2022-12-10T07:02:12;176.38;;;42.22;;
26702;SDS011;14316;51.074;3.704;2022-12-10T07:04:38;152.02;;;41.30;;
26702;SDS011;14316;51.074;3.704;2022-12-10T07:07:04;144.60;;;43.58;;
26702;SDS011;14316;51.074;3.704;2022-12-10T07:09:32;156.63;;;37.88;;
26702;SDS011;14316;51.074;3.704;2022-12-10T07:12:04;167.45;;;43.33;;
26702;SDS011;14316;51.074;3.704;2022-12-10T07:14:30;161.30;;;41.00;;
26702;SDS011;14316;51.074;3.704;2022-12-10T07:16:56;184.32;;;42.47;;
26702;SDS011;14316;51.074;3.704;2022-12-10T07:19:22;163.23;;;41.20;;
26702;SDS011;14316;51.074;3.704;2022-12-10T07:21:49;157.40;;;41.08;;
26702;SDS011;14316;51.074;3.704;2022-12-10T07:24:16;138.93;;;38.92;;
26702;SDS011;14316;51.074;3.704;2022-12-10T07:26:44;150.18;;;38.78;;
26702;SDS011;14316;51.074;3.704;2022-12-10T07:29:14;144.20;;;41.95;;
26702;SDS011;14316;51.074;3.704;2022-12-10T07:31:42;133.90;;;38.92;;
26702;SDS011;14316;51.074;3.704;2022-12-10T07:34:09;144.13;;;40.58;;
26702;SDS011;14316;51.074;3.704;2022-12-10T07:36:35;148.75;;;44.20;;
26702;SDS011;14316;51.074;3.704;2022-12-10T07:39:01;168.20;;;41.22;;
26702;SDS011;14316;51.074;3.704;2022-12-10T07:41:29;140.65;;;40.20;;
26702;SDS011;14316;51.074;3.704;2022-12-10T07:43:55;108.45;;;32.28;;
26702;SDS011;14316;51.074;3.704;2022-12-10T07:46:23;116.32;;;34.72;;
26702;SDS011;14316;51.074;3.704;2022-12-10T07:48:50;122.95;;;34.55;;
26702;SDS011;14316;51.074;3.704;2022-12-10T07:51:16;114.35;;;35.45;;
26702;SDS011;14316;51.074;3.704;2022-12-10T07:53:45;115.40;;;41.63;;
26702;SDS011;14316;51.074;3.704;2022-12-10T07:56:11;121.82;;;41.10;;
26702;SDS011;14316;51.074;3.704;2022-12-10T07:58:40;129.55;;;37.17;;
26702;SDS011;14316;51.074;3.704;2022-12-10T08:01:07;134.55;;;42.45;;
26702;SDS011;14316;51.074;3.704;2022-12-10T08:03:34;117.43;;;40.75;;
26702;SDS011;14316;51.074;3.704;2022-12-10T08:06:04;82.45;;;31.33;;
26702;SDS011;14316;51.074;3.704;2022-12-10T08:08:35;94.10;;;37.10;;
26702;SDS011;14316;51.074;3.704;2022-12-10T08:11:02;99.60;;;37.83;;
26702;SDS011;14316;51.074;3.704;2022-12-10T08:13:29;98.28;;;39.00;;
26702;SDS011;14316;51.074;3.704;2022-12-10T08:16:04;76.82;;;29.35;;
26702;SDS011;14316;51.074;3.704;2022-12-10T08:18:39;112.55;;;35.28;;
26702;SDS011;14316;51.074;3.704;2022-12-10T08:21:06;97.72;;;35.83;;
26702;SDS011;14316;51.074;3.704;2022-12-10T08:23:34;109.53;;;38.97;;
26702;SDS011;14316;51.074;3.704;2022-12-10T08:26:06;117.70;;;39.13;;
26702;SDS011;14316;51.074;3.704;2022-12-10T08:28:34;109.60;;;40.83;;
26702;SDS011;14316;51.074;3.704;2022-12-10T08:31:00;115.20;;;40.45;;
26702;SDS011;14316;51.074;3.704;2022-12-10T08:33:26;89.18;;;34.55;;
26702;SDS011;14316;51.074;3.704;2022-12-10T08:35:52;113.25;;;40.15;;
26702;SDS011;14316;51.074;3.704;2022-12-10T08:38:21;119.30;;;41.95;;
26702;SDS011;14316;51.074;3.704;2022-12-10T08:40:47;107.18;;;39.92;;
26702;SDS011;14316;51.074;3.704;2022-12-10T08:43:13;111.65;;;43.03;;
26702;SDS011;14316;51.074;3.704;2022-12-10T08:45:39;83.60;;;28.05;;
26702;SDS011;14316;51.074;3.704;2022-12-10T08:48:05;90.85;;;29.60;;
26702;SDS011;14316;51.074;3.704;2022-12-10T08:50:30;104.28;;;39.30;;
26702;SDS011;14316;51.074;3.704;2022-12-10T08:52:56;85.07;;;31.40;;
26702;SDS011;14316;51.074;3.704;2022-12-10T08:55:21;112.78;;;42.50;;
26702;SDS011;14316;51.074;3.704;2022-12-10T08:57:47;105.35;;;39.13;;
26702;SDS011;14316;51.074;3.704;2022-12-10T09:00:13;96.65;;;34.97;;
26702;SDS011;14316;51.074;3.704;2022-12-10T09:02:39;105.00;;;42.65;;
26702;SDS011;14316;51.074;3.704;2022-12-10T09:05:05;103.43;;;41.28;;
26702;SDS011;14316;51.074;3.704;2022-12-10T09:07:31;96.18;;;41.45;;
26702;SDS011;14316;51.074;3.704;2022-12-10T09:09:57;82.95;;;35.53;;
26702;SDS011;14316;51.074;3.704;2022-12-10T09:12:23;94.70;;;37.65;;
26702;SDS011;14316;51.074;3.704;2022-12-10T09:14:49;91.55;;;38.08;;
26702;SDS011;14316;51.074;3.704;2022-12-10T09:17:14;79.20;;;33.80;;
26702;SDS011;14316;51.074;3.704;2022-12-10T09:19:40;77.43;;;32.80;;
26702;SDS011;14316;51.074;3.704;2022-12-10T09:22:06;82.88;;;36.55;;
26702;SDS011;14316;51.074;3.704;2022-12-10T09:24:32;85.80;;;34.92;;
26702;SDS011;14316;51.074;3.704;2022-12-10T09:26:58;79.75;;;36.35;;
26702;SDS011;14316;51.074;3.704;2022-12-10T09:29:25;81.18;;;35.65;;
26702;SDS011;14316;51.074;3.704;2022-12-10T09:31:51;91.22;;;37.00;;
26702;SDS011;14316;51.074;3.704;2022-12-10T09:34:17;82.15;;;31.92;;
26702;SDS011;14316;51.074;3.704;2022-12-10T09:36:43;87.78;;;36.30;;
26702;SDS011;14316;51.074;3.704;2022-12-10T09:39:09;82.20;;;33.65;;
26702;SDS011;14316;51.074;3.704;2022-12-10T09:47:02;76.97;;;34.78;;
26702;SDS011;14316;51.074;3.704;2022-12-10T09:49:34;90.63;;;36.22;;
26702;SDS011;14316;51.074;3.704;2022-12-10T09:52:12;73.53;;;33.53;;
26702;SDS011;14316;51.074;3.704;2022-12-10T09:54:59;59.50;;;25.58;;
26702;SDS011;14316;51.074;3.704;2022-12-10T09:57:28;78.20;;;34.97;;
26702;SDS011;14316;51.074;3.704;2022-12-10T09:59:59;69.32;;;29.73;;
26702;SDS011;14316;51.074;3.704;2022-12-10T10:02:32;75.75;;;30.25;;
26702;SDS011;14316;51.074;3.704;2022-12-10T10:05:08;68.95;;;28.40;;
26702;SDS011;14316;51.074;3.704;2022-12-10T10:07:46;74.55;;;32.67;;
26702;SDS011;14316;51.074;3.704;2022-12-10T10:12:46;71.20;;;30.75;;
26702;SDS011;14316;51.074;3.704;2022-12-10T10:15:15;67.65;;;29.77;;
26702;SDS011;14316;51.074;3.704;2022-12-10T10:17:43;76.00;;;32.55;;
26702;SDS011;14316;51.074;3.704;2022-12-10T10:20:11;67.20;;;28.63;;
26702;SDS011;14316;51.074;3.704;2022-12-10T10:22:39;64.30;;;27.77;;
26702;SDS011;14316;51.074;3.704;2022-12-10T10:25:06;68.00;;;30.15;;
26702;SDS011;14316;51.074;3.704;2022-12-10T10:27:41;73.32;;;32.05;;
26702;SDS011;14316;51.074;3.704;2022-12-10T10:30:12;72.18;;;32.22;;
26702;SDS011;14316;51.074;3.704;2022-12-10T10:35:09;68.35;;;33.25;;
26702;SDS011;14316;51.074;3.704;2022-12-10T10:38:15;66.85;;;31.17;;
26702;SDS011;14316;51.074;3.704;2022-12-10T10:40:55;61.65;;;30.60;;
26702;SDS011;14316;51.074;3.704;2022-12-10T10:43:23;65.50;;;29.23;;
26702;SDS011;14316;51.074;3.704;2022-12-10T10:45:54;57.15;;;28.63;;
26702;SDS011;14316;51.074;3.704;2022-12-10T10:48:26;62.17;;;30.40;;
26702;SDS011;14316;51.074;3.704;2022-12-10T10:53:39;57.90;;;28.63;;
26702;SDS011;14316;51.074;3.704;2022-12-10T10:56:15;56.08;;;29.35;;
26702;SDS011;14316;51.074;3.704;2022-12-10T11:02:19;57.95;;;31.42;;
26702;SDS011;14316;51.074;3.704;2022-12-10T11:04:49;53.33;;;28.27;;
26702;SDS011;14316;51.074;3.704;2022-12-10T11:09:58;44.87;;;24.80;;
26702;SDS011;14316;51.074;3.704;2022-12-10T11:12:38;50.97;;;28.02;;
26702;SDS011;14316;51.074;3.704;2022-12-10T11:17:53;46.88;;;23.00;;
26702;SDS011;14316;51.074;3.704;2022-12-10T11:20:27;47.13;;;24.20;;
26702;SDS011;14316;51.074;3.704;2022-12-10T11:23:00;47.97;;;22.75;;
26702;SDS011;14316;51.074;3.704;2022-12-10T11:31:13;49.22;;;25.20;;
26702;SDS011;14316;51.074;3.704;2022-12-10T11:34:09;43.88;;;23.33;;
26702;SDS011;14316;51.074;3.704;2022-12-10T11:42:37;38.25;;;22.35;;
26702;SDS011;14316;51.074;3.704;2022-12-10T11:48:14;38.13;;;22.20;;
26702;SDS011;14316;51.074;3.704;2022-12-10T11:53:27;35.80;;;19.27;;
26702;SDS011;14316;51.074;3.704;2022-12-10T12:01:18;37.83;;;21.25;;
26702;SDS011;14316;51.074;3.704;2022-12-10T12:14:26;35.78;;;20.95;;
26702;SDS011;14316;51.074;3.704;2022-12-10T12:20:00;39.03;;;21.63;;
26702;SDS011;14316;51.074;3.704;2022-12-10T12:22:33;40.22;;;22.13;;
26702;SDS011;14316;51.074;3.704;2022-12-10T12:25:10;41.60;;;22.38;;
26702;SDS011;14316;51.074;3.704;2022-12-10T12:27:48;43.55;;;23.63;;
26702;SDS011;14316;51.074;3.704;2022-12-10T12:30:19;36.67;;;20.58;;
26702;SDS011;14316;51.074;3.704;2022-12-10T12:38:30;44.75;;;23.20;;
26702;SDS011;14316;51.074;3.704;2022-12-10T12:41:02;43.13;;;21.10;;
26702;SDS011;14316;51.074;3.704;2022-12-10T12:46:02;50.30;;;25.65;;
26702;SDS011;14316;51.074;3.704;2022-12-10T12:48:54;40.28;;;23.00;;
26702;SDS011;14316;51.074;3.704;2022-12-10T12:51:32;36.63;;;22.00;;
26702;SDS011;14316;51.074;3.704;2022-12-10T12:54:03;34.97;;;20.15;;
26702;SDS011;14316;51.074;3.704;2022-12-10T12:56:40;38.55;;;20.67;;
